Time;durP1;ratioP1;P1;durP2;ratioP2;P2;SDS_P1;SDS_P2;PMS_P1;PMS_P2;Temp;Humidity;BMP_temperature;BMP_pressure;BME280_temperature;BME280_humidity;BME280_pressure;Samples;Min_cycle;Max_cycle;Signal;HPM_P1;HPM_P2
2023/01/25 00:01:51;;;;;;;20.60;12.27;;;;;;;4.26;73.52;101059.97;5013752;28;20448;-77
2023/01/25 00:04:18;;;;;;;19.80;11.40;;;;;;;4.27;73.52;101054.78;5010145;28;20543;-76
2023/01/25 00:06:51;;;;;;;22.02;12.25;;;;;;;4.28;73.40;101053.03;5015700;28;20223;-77
2023/01/25 00:09:17;;;;;;;16.17;11.55;;;;;;;4.31;73.54;101047.78;5011400;28;20202;-76
2023/01/25 00:11:43;;;;;;;19.80;12.63;;;;;;;4.30;73.32;101054.72;5012617;28;20208;-76
2023/01/25 00:14:10;;;;;;;20.93;11.80;;;;;;;4.30;73.39;101052.13;5014383;28;20221;-76
2023/01/25 00:19:28;;;;;;;18.15;11.45;;;;;;;4.32;73.39;101041.69;4979657;28;20547;-81
2023/01/25 00:21:53;;;;;;;19.50;11.13;;;;;;;4.31;73.48;101038.22;5002260;28;20206;-81
2023/01/25 00:24:21;;;;;;;23.43;13.50;;;;;;;4.30;73.34;101044.31;5003696;28;20209;-81
2023/01/25 00:26:47;;;;;;;18.85;12.77;;;;;;;4.30;73.33;101046.06;5004425;28;20322;-81
2023/01/25 00:29:13;;;;;;;19.73;11.17;;;;;;;4.28;73.29;101045.22;5007961;28;20218;-81
2023/01/25 00:32:06;;;;;;;24.23;12.10;;;;;;;4.28;73.28;101047.81;4984255;28;20204;-82
2023/01/25 00:34:46;;;;;;;19.05;9.60;;;;;;;4.27;73.31;101040.91;4993178;28;20257;-83
2023/01/25 00:37:16;;;;;;;17.98;12.23;;;;;;;4.26;73.48;101036.56;4996638;28;20227;-82
2023/01/25 00:39:41;;;;;;;21.23;11.48;;;;;;;4.21;73.78;101040.13;4994751;28;20210;-83
2023/01/25 00:42:09;;;;;;;19.07;12.70;;;;;;;4.17;73.80;101035.81;4991423;28;20204;-83
2023/01/25 00:44:35;;;;;;;19.08;12.85;;;;;;;4.14;73.89;101025.47;4974250;28;20192;-82
2023/01/25 00:47:00;;;;;;;20.13;12.37;;;;;;;4.12;73.94;101031.56;4995181;28;20227;-81
2023/01/25 00:49:26;;;;;;;20.37;12.30;;;;;;;4.10;74.02;101025.53;4972973;28;20219;-80
2023/01/25 00:51:54;;;;;;;20.83;12.57;;;;;;;4.09;73.92;101031.63;4993416;28;20315;-81
2023/01/25 00:54:20;;;;;;;16.67;12.57;;;;;;;4.08;74.10;101024.69;4999518;28;20486;-83
2023/01/25 00:56:46;;;;;;;27.08;14.40;;;;;;;4.05;74.37;101022.13;4994958;28;20278;-80
2023/01/25 00:59:14;;;;;;;22.77;12.60;;;;;;;4.03;74.10;101019.56;4994702;28;20222;-80
2023/01/25 01:01:40;;;;;;;20.85;13.50;;;;;;;4.03;74.27;101016.97;4998326;28;20302;-81
2023/01/25 01:04:07;;;;;;;23.58;13.02;;;;;;;4.01;74.22;101005.72;4993395;28;20223;-83
2023/01/25 01:06:39;;;;;;;19.17;11.60;;;;;;;3.97;74.54;101015.31;4995497;28;20213;-80
2023/01/25 01:09:06;;;;;;;25.25;13.80;;;;;;;3.96;74.61;101007.53;4990062;28;20281;-83
2023/01/25 01:11:32;;;;;;;21.23;12.10;;;;;;;3.92;74.59;101006.72;4996132;28;20686;-83
2023/01/25 01:14:25;;;;;;;16.13;10.32;;;;;;;3.89;74.96;101011.09;4991260;28;20587;-83
2023/01/25 01:17:05;;;;;;;21.77;12.35;;;;;;;3.87;74.85;101016.31;4987183;28;20194;-80
2023/01/25 01:19:36;;;;;;;21.15;13.48;;;;;;;3.87;74.91;101018.91;4977377;28;20211;-80
2023/01/25 01:22:01;;;;;;;20.57;13.90;;;;;;;3.86;74.79;101008.53;4985314;28;20300;-81
2023/01/25 01:24:28;;;;;;;19.10;13.13;;;;;;;3.85;74.88;101012.88;4986282;28;20196;-81
2023/01/25 01:26:53;;;;;;;18.50;12.00;;;;;;;3.84;75.06;101003.38;4981228;28;20228;-81
2023/01/25 01:29:19;;;;;;;23.53;12.00;;;;;;;3.84;74.85;101007.72;4967136;28;20204;-81
2023/01/25 01:31:44;;;;;;;24.27;15.23;;;;;;;3.84;75.16;101008.56;4981388;28;20527;-81
2023/01/25 01:34:18;;;;;;;28.77;16.15;;;;;;;3.85;75.22;101004.22;4967983;28;20504;-81
2023/01/25 01:36:44;;;;;;;24.02;13.65;;;;;;;3.85;75.16;101020.66;4966890;28;20201;-81
2023/01/25 01:39:09;;;;;;;23.37;14.17;;;;;;;3.84;75.39;101011.16;4982258;28;20204;-81
2023/01/25 01:41:36;;;;;;;22.43;13.70;;;;;;;3.86;75.35;101016.31;4966349;28;20247;-81
2023/01/25 01:44:02;;;;;;;16.45;11.52;;;;;;;3.85;75.52;101006.81;4964257;28;20200;-81
2023/01/25 01:46:38;;;;;;;30.23;14.70;;;;;;;3.86;75.12;101005.94;4982768;28;20215;-81
2023/01/25 01:49:18;;;;;;;24.55;14.63;;;;;;;3.84;75.28;101007.72;4969814;28;20225;-81
2023/01/25 01:51:50;;;;;;;23.20;14.27;;;;;;;3.84;75.27;101005.97;4976173;28;20683;-81
2023/01/25 01:54:35;;;;;;;23.20;13.05;;;;;;;3.84;75.37;101003.38;4972911;28;20389;-81
2023/01/25 01:57:17;;;;;;;25.73;13.15;;;;;;;3.87;75.01;100994.66;4991162;28;20227;-81
2023/01/25 01:59:49;;;;;;;24.95;12.45;;;;;;;3.87;75.30;100992.06;4988655;28;20207;-81
2023/01/25 02:02:15;;;;;;;22.13;12.50;;;;;;;3.86;74.83;100991.22;4973392;28;20308;-81
2023/01/25 02:04:46;;;;;;;26.05;15.43;;;;;;;3.86;75.11;100983.41;4975486;28;20211;-81
2023/01/25 02:07:31;;;;;;;16.25;11.45;;;;;;;3.88;75.15;100988.56;4974754;28;20242;-81
2023/01/25 02:09:58;;;;;;;23.10;13.50;;;;;;;3.87;75.01;100992.06;4980894;28;20205;-81
2023/01/25 02:12:24;;;;;;;21.45;13.35;;;;;;;3.85;75.18;100988.63;4980642;28;20193;-81
2023/01/25 02:14:52;;;;;;;26.70;13.73;;;;;;;3.84;74.98;100994.72;4964277;28;20224;-81
2023/01/25 02:17:28;;;;;;;23.58;13.27;;;;;;;3.83;75.30;100979.97;4972716;28;20251;-78
2023/01/25 02:20:15;;;;;;;19.10;11.70;;;;;;;3.80;75.31;100977.44;4968699;28;20611;-78
2023/01/25 02:23:22;;;;;;;23.13;12.40;;;;;;;3.77;75.48;100980.94;4984996;28;20212;-79
2023/01/25 02:25:48;;;;;;;28.55;14.18;;;;;;;3.74;75.48;100980.97;4970134;28;20211;-79
2023/01/25 02:28:24;;;;;;;26.50;14.65;;;;;;;3.74;75.46;100976.63;4986952;28;20214;-81
2023/01/25 02:30:49;;;;;;;17.52;10.68;;;;;;;3.74;75.33;100981.81;4969004;28;20244;-78
2023/01/25 02:33:15;;;;;;;20.43;12.90;;;;;;;3.75;75.40;100978.38;4986738;28;20270;-81
2023/01/25 02:35:45;;;;;;;21.80;13.80;;;;;;;3.77;75.51;100989.56;4968827;28;20722;-78
2023/01/25 02:38:14;;;;;;;19.60;12.40;;;;;;;3.78;75.28;100987.88;4969316;28;20232;-80
2023/01/25 02:40:47;;;;;;;18.65;10.45;;;;;;;3.77;75.47;100984.38;4972391;28;20196;-78
2023/01/25 02:43:15;;;;;;;19.52;12.15;;;;;;;3.76;75.61;100981.81;4970033;28;20218;-78
2023/01/25 02:45:45;;;;;;;21.27;12.15;;;;;;;3.73;75.50;100980.13;4971231;28;20245;-80
2023/01/25 02:48:10;;;;;;;20.80;12.75;;;;;;;3.75;75.48;100991.38;4985911;28;20227;-78
2023/01/25 02:50:36;;;;;;;19.53;9.50;;;;;;;3.73;75.66;100984.47;4985655;28;20218;-79
2023/01/25 02:53:01;;;;;;;29.23;13.87;;;;;;;3.72;75.53;100991.38;4969802;28;20211;-79
2023/01/25 02:55:26;;;;;;;22.33;12.70;;;;;;;3.70;75.65;100993.16;4969984;28;20385;-80
2023/01/25 02:57:52;;;;;;;26.07;11.77;;;;;;;3.70;75.40;100984.47;4969717;28;20358;-79
2023/01/25 03:00:18;;;;;;;18.80;13.03;;;;;;;3.69;75.69;100987.97;4986891;28;20285;-78
2023/01/25 03:02:44;;;;;;;23.52;13.77;;;;;;;3.68;75.65;100984.50;4984840;28;20242;-79
2023/01/25 03:05:10;;;;;;;24.27;12.70;;;;;;;3.66;75.52;100975.88;4983825;28;20839;-78
2023/01/25 03:07:36;;;;;;;24.77;11.95;;;;;;;3.64;75.62;100974.19;4969335;28;20231;-78
2023/01/25 03:10:02;;;;;;;30.00;11.40;;;;;;;3.64;75.80;100976.78;4970164;28;20207;-78
2023/01/25 03:12:29;;;;;;;23.23;12.65;;;;;;;3.64;76.06;100968.97;4968378;28;20454;-78
2023/01/25 03:14:54;;;;;;;23.57;13.40;;;;;;;3.65;75.66;100974.16;4971146;28;20716;-79
2023/01/25 03:17:20;;;;;;;21.83;12.73;;;;;;;3.64;75.75;100969.84;4987250;28;20254;-78
2023/01/25 03:19:47;;;;;;;19.83;11.23;;;;;;;3.65;75.63;100970.72;4965943;28;20196;-82
2023/01/25 03:22:12;;;;;;;20.50;13.97;;;;;;;3.65;75.74;100961.19;4983647;28;20212;-82
2023/01/25 03:24:37;;;;;;;21.87;12.33;;;;;;;3.65;75.60;100955.13;4967727;28;20211;-82
2023/01/25 03:27:12;;;;;;;21.67;11.77;;;;;;;3.65;75.77;100966.38;4967458;28;20231;-82
2023/01/25 03:29:52;;;;;;;19.02;12.35;;;;;;;3.63;75.62;100960.34;4966317;28;20204;-81
2023/01/25 03:32:26;;;;;;;20.33;11.43;;;;;;;3.63;75.84;100947.34;4968035;28;21291;-82
2023/01/25 03:34:52;;;;;;;19.30;11.63;;;;;;;3.64;75.47;100951.66;4967273;28;20227;-82
2023/01/25 03:37:18;;;;;;;21.52;13.55;;;;;;;3.64;75.70;100951.66;4966005;28;20286;-83
2023/01/25 03:39:44;;;;;;;18.40;11.50;;;;;;;3.65;75.63;100942.13;4967837;28;20206;-82
2023/01/25 03:42:10;;;;;;;22.48;12.88;;;;;;;3.67;75.76;100937.75;4965132;28;20204;-83
2023/01/25 03:44:36;;;;;;;24.47;11.40;;;;;;;3.67;75.62;100936.03;4984625;28;20337;-81
2023/01/25 03:47:02;;;;;;;20.65;12.23;;;;;;;3.65;75.58;100935.19;4967852;28;20253;-79
2023/01/25 03:49:28;;;;;;;24.30;15.98;;;;;;;3.66;75.91;100936.03;4964820;28;20602;-82
2023/01/25 03:51:54;;;;;;;17.40;12.77;;;;;;;3.66;75.80;100930.84;4966680;28;20294;-82
2023/01/25 03:54:26;;;;;;;20.20;11.93;;;;;;;3.66;76.18;100936.91;4952818;28;20253;-79
2023/01/25 03:56:52;;;;;;;17.50;12.37;;;;;;;3.65;76.12;100935.19;4967776;28;20218;-79
2023/01/25 03:59:24;;;;;;;25.50;10.65;;;;;;;3.66;75.82;100933.44;4969102;28;20203;-79
2023/01/25 04:01:49;;;;;;;19.73;12.80;;;;;;;3.64;75.69;100930.84;4965477;28;20195;-79
2023/01/25 04:04:15;;;;;;;21.35;12.85;;;;;;;3.60;75.54;100928.34;4983668;28;20219;-80
2023/01/25 04:06:43;;;;;;;20.70;11.82;;;;;;;3.59;76.03;100935.25;4983280;28;20915;-81
2023/01/25 04:09:09;;;;;;;24.50;12.97;;;;;;;3.58;76.15;100928.34;4982445;28;20216;-80
2023/01/25 04:11:39;;;;;;;25.05;15.27;;;;;;;3.57;75.69;100928.38;4965865;28;20223;-82
2023/01/25 04:14:04;;;;;;;19.00;13.18;;;;;;;3.55;75.63;100931.84;4965562;28;20269;-80
2023/01/25 04:16:40;;;;;;;18.85;12.13;;;;;;;3.53;76.02;100937.94;4968420;28;20298;-82
2023/01/25 04:19:25;;;;;;;25.50;12.93;;;;;;;3.51;76.07;100937.97;4966865;28;20212;-82
2023/01/25 04:21:58;;;;;;;26.00;12.93;;;;;;;3.50;76.03;100938.00;4966518;28;20298;-82
2023/01/25 04:24:27;;;;;;;19.52;11.35;;;;;;;3.52;75.77;100946.63;4962683;28;20207;-80
2023/01/25 04:26:53;;;;;;;21.03;13.07;;;;;;;3.51;76.17;100942.28;4968757;28;20723;-83
2023/01/25 04:29:18;;;;;;;17.20;11.80;;;;;;;3.52;76.02;100938.84;4967001;28;20211;-82
2023/01/25 04:31:44;;;;;;;22.37;12.63;;;;;;;3.52;75.74;100941.44;4966074;28;20303;-83
2023/01/25 04:34:10;;;;;;;25.30;12.70;;;;;;;3.51;76.02;100931.91;4960160;28;20628;-83
2023/01/25 04:36:36;;;;;;;21.50;12.10;;;;;;;3.49;76.03;100924.16;4964950;28;20486;-82
2023/01/25 04:39:01;;;;;;;19.03;12.10;;;;;;;3.51;76.02;100926.69;4965357;28;20652;-83
2023/01/25 04:41:28;;;;;;;23.87;12.57;;;;;;;3.52;76.23;100924.09;4964751;28;20260;-82
2023/01/25 04:43:54;;;;;;;24.63;13.90;;;;;;;3.52;75.92;100918.91;4964835;28;20204;-80
2023/01/25 04:46:19;;;;;;;26.37;12.17;;;;;;;3.53;75.88;100931.00;4981901;28;20564;-83
2023/01/25 04:48:45;;;;;;;22.57;14.00;;;;;;;3.53;75.91;100922.34;4966242;28;20689;-81
2023/01/25 04:51:10;;;;;;;21.67;13.27;;;;;;;3.53;75.78;100920.63;4967286;28;20243;-83
2023/01/25 04:53:36;;;;;;;21.30;12.30;;;;;;;3.51;75.86;100916.31;4964424;28;20204;-81
2023/01/25 04:56:04;;;;;;;25.70;13.38;;;;;;;3.52;76.08;100913.72;4966062;28;20234;-83
2023/01/25 04:58:34;;;;;;;23.42;12.77;;;;;;;3.55;76.03;100920.59;4980395;28;20712;-80
2023/01/25 05:01:01;;;;;;;18.55;10.88;;;;;;;3.55;75.91;100920.59;4965080;28;20265;-81
2023/01/25 05:03:27;;;;;;;22.85;13.25;;;;;;;3.51;75.96;100918.91;4925435;28;20264;-76
2023/01/25 05:05:53;;;;;;;29.10;14.20;;;;;;;3.50;76.09;100919.81;4942017;29;20228;-79
2023/01/25 05:08:21;;;;;;;21.10;12.20;;;;;;;3.51;75.93;100926.69;4924202;28;20248;-79
2023/01/25 05:10:47;;;;;;;23.20;11.47;;;;;;;3.50;75.66;100919.81;4928664;28;20271;-79
2023/01/25 05:13:29;;;;;;;23.33;10.73;;;;;;;3.48;75.86;100913.75;4962251;28;20202;-79
2023/01/25 05:16:13;;;;;;;19.15;13.20;;;;;;;3.46;75.99;100908.59;4962764;28;20264;-78
2023/01/25 05:18:39;;;;;;;26.03;13.73;;;;;;;3.44;76.02;100904.31;4957573;28;20240;-76
2023/01/25 05:21:04;;;;;;;23.03;12.80;;;;;;;3.43;76.00;100907.78;4955330;28;20216;-79
2023/01/25 05:23:30;;;;;;;19.83;12.87;;;;;;;3.41;76.17;100904.34;4956097;28;20211;-76
2023/01/25 05:28:40;;;;;;;21.27;14.27;;;;;;;3.36;76.60;100903.56;4957471;28;20300;-78
2023/01/25 05:31:23;;;;;;;25.27;12.82;;;;;;;3.35;76.32;100905.31;4940761;28;20210;-77
2023/01/25 05:33:49;;;;;;;26.63;15.00;;;;;;;3.35;76.25;100904.41;4946328;28;20200;-75
2023/01/25 05:36:15;;;;;;;19.83;12.82;;;;;;;3.35;76.23;100904.41;4938029;28;20208;-77
2023/01/25 05:38:41;;;;;;;31.20;17.43;;;;;;;3.35;76.22;100905.31;4941371;28;20225;-78
2023/01/25 05:41:08;;;;;;;23.15;14.93;;;;;;;3.35;76.46;100901.81;4938238;28;20470;-76
2023/01/25 05:43:34;;;;;;;27.67;15.00;;;;;;;3.36;76.23;100906.16;4935828;28;20209;-78
2023/01/25 05:46:03;;;;;;;29.67;15.38;;;;;;;3.35;76.47;100907.00;4940973;28;20206;-76
2023/01/25 05:48:29;;;;;;;23.42;12.45;;;;;;;3.32;76.33;100903.59;4945653;28;20599;-76
2023/01/25 05:50:57;;;;;;;22.23;14.02;;;;;;;3.31;76.43;100899.25;4946772;28;20216;-79
2023/01/25 05:53:26;;;;;;;26.33;14.00;;;;;;;3.30;76.41;100901.91;4936622;28;20286;-76
2023/01/25 05:55:53;;;;;;;27.70;13.95;;;;;;;3.30;76.79;100900.16;4947284;28;20213;-80
2023/01/25 05:58:18;;;;;;;21.60;12.68;;;;;;;3.31;76.50;100901.00;4939819;28;20239;-79
2023/01/25 06:00:44;;;;;;;23.93;12.83;;;;;;;3.29;76.65;100895.84;4955368;28;20208;-82
2023/01/25 06:03:16;;;;;;;20.45;13.68;;;;;;;3.27;76.74;100897.59;4940000;28;20646;-80
2023/01/25 06:05:42;;;;;;;27.50;14.40;;;;;;;3.27;77.02;100901.94;4936545;28;20273;-82
2023/01/25 06:08:07;;;;;;;26.27;15.23;;;;;;;3.25;76.72;100890.72;4939564;28;20687;-79
2023/01/25 06:10:46;;;;;;;18.05;11.75;;;;;;;3.23;77.06;100897.66;4955997;28;20230;-82
2023/01/25 06:13:11;;;;;;;30.08;15.50;;;;;;;3.23;77.05;100895.91;4958823;28;20208;-80
2023/01/25 06:15:37;;;;;;;26.00;14.90;;;;;;;3.23;76.78;100895.91;4956928;28;20301;-80
2023/01/25 06:18:23;;;;;;;29.05;13.13;;;;;;;3.24;77.15;100897.66;4986743;23;20612;-79
2023/01/25 06:21:10;;;;;;;29.35;13.30;;;;;;;3.25;76.86;100899.34;4985152;28;20268;-77
2023/01/25 06:23:36;;;;;;;23.70;13.00;;;;;;;3.26;76.82;100895.88;4999742;28;20298;-77
2023/01/25 06:26:05;;;;;;;27.37;14.10;;;;;;;3.28;77.04;100895.84;5002336;28;20206;-77
2023/01/25 06:28:35;;;;;;;23.45;11.55;;;;;;;3.27;76.93;100900.19;5001918;28;20210;-76
2023/01/25 06:31:06;;;;;;;31.35;14.18;;;;;;;3.26;76.76;100895.88;4999284;28;20219;-78
2023/01/25 06:33:32;;;;;;;29.00;15.48;;;;;;;3.28;77.11;100899.31;5000064;28;20201;-78
2023/01/25 06:36:06;;;;;;;25.73;13.70;;;;;;;3.26;76.75;100901.06;5001518;28;20238;-78
2023/01/25 06:38:32;;;;;;;24.45;15.15;;;;;;;3.27;77.12;100897.59;4999273;28;20857;-78
2023/01/25 06:40:59;;;;;;;26.30;13.38;;;;;;;3.27;76.90;100902.78;4999068;28;20210;-77
2023/01/25 06:43:24;;;;;;;26.58;15.43;;;;;;;3.27;77.15;100892.41;5002038;28;20198;-78
2023/01/25 06:45:50;;;;;;;28.40;15.83;;;;;;;3.30;76.99;100894.09;5001747;28;20230;-78
2023/01/25 06:48:16;;;;;;;23.93;14.60;;;;;;;3.31;77.03;100894.06;5001757;28;20288;-78
2023/01/25 06:50:41;;;;;;;27.90;14.23;;;;;;;3.32;76.75;100882.81;5000718;28;20271;-78
2023/01/25 06:53:06;;;;;;;30.70;15.53;;;;;;;3.33;76.68;100892.31;4998121;28;20597;-78
2023/01/25 06:55:32;;;;;;;24.77;14.47;;;;;;;3.32;77.01;100884.53;5000695;28;20315;-78
2023/01/25 06:57:59;;;;;;;26.43;13.83;;;;;;;3.28;76.87;100878.53;5000345;28;20227;-78
2023/01/25 07:00:25;;;;;;;27.92;14.85;;;;;;;3.31;77.04;100891.47;5000140;28;20268;-77
2023/01/25 07:02:50;;;;;;;30.90;15.53;;;;;;;3.29;76.79;100889.78;4998860;28;20683;-77
2023/01/25 07:05:15;;;;;;;24.40;14.20;;;;;;;3.29;77.02;100895.84;5000473;28;20205;-78
2023/01/25 07:07:45;;;;;;;31.83;18.63;;;;;;;3.27;76.92;100886.38;4999831;28;20652;-78
2023/01/25 07:10:10;;;;;;;27.20;14.07;;;;;;;3.27;77.20;100884.63;4998894;28;20203;-78
2023/01/25 07:12:36;;;;;;;23.73;16.10;;;;;;;3.28;76.78;100881.13;4999444;28;20262;-77
2023/01/25 07:15:01;;;;;;;25.70;14.40;;;;;;;3.30;77.02;100875.94;4998656;28;20260;-78
2023/01/25 07:17:27;;;;;;;27.07;14.43;;;;;;;3.31;76.95;100882.84;4999898;28;20207;-78
2023/01/25 07:19:52;;;;;;;23.73;15.60;;;;;;;3.31;77.02;100875.03;4997520;28;20604;-78
2023/01/25 07:22:17;;;;;;;28.47;16.90;;;;;;;3.31;76.84;100881.09;4999202;28;20206;-78
2023/01/25 07:24:48;;;;;;;24.90;14.43;;;;;;;3.31;76.87;100877.63;4996765;28;20200;-78
2023/01/25 07:27:15;;;;;;;31.95;13.93;;;;;;;3.31;76.98;100878.50;4997650;28;20575;-78
2023/01/25 07:29:40;;;;;;;27.15;13.95;;;;;;;3.30;76.75;100874.19;5000992;28;20401;-78
2023/01/25 07:32:06;;;;;;;28.93;16.00;;;;;;;3.30;76.77;100873.34;4999355;28;20217;-78
2023/01/25 07:34:31;;;;;;;20.43;12.60;;;;;;;3.30;76.84;100879.38;4998551;28;20226;-78
2023/01/25 07:36:57;;;;;;;33.10;15.90;;;;;;;3.31;76.90;100872.44;4997819;28;20203;-78
2023/01/25 07:39:22;;;;;;;21.93;13.57;;;;;;;3.32;76.73;100880.22;5001266;28;20290;-76
2023/01/25 07:41:48;;;;;;;30.80;15.83;;;;;;;3.34;76.53;100882.78;4999185;28;20717;-76
2023/01/25 07:44:17;;;;;;;26.13;14.70;;;;;;;3.36;76.60;100880.19;5000785;28;20195;-77
2023/01/25 07:46:48;;;;;;;24.90;14.88;;;;;;;3.37;76.56;100877.53;4999123;28;20676;-77
2023/01/25 07:49:14;;;;;;;27.10;14.30;;;;;;;3.38;76.76;100878.44;5000564;28;20245;-77
2023/01/25 07:51:39;;;;;;;24.80;12.90;;;;;;;3.41;76.68;100878.38;4997670;28;20210;-77
2023/01/25 07:54:05;;;;;;;25.30;13.97;;;;;;;3.42;76.44;100880.09;4997307;28;20227;-77
2023/01/25 07:56:36;;;;;;;26.97;15.13;;;;;;;3.46;76.64;100880.03;5001040;28;20210;-78
2023/01/25 07:59:02;;;;;;;27.83;13.88;;;;;;;3.50;76.13;100886.03;5000196;28;20254;-78
2023/01/25 08:01:29;;;;;;;28.93;17.03;;;;;;;3.39;76.63;100883.59;4999896;28;20689;-77
2023/01/25 08:03:56;;;;;;;29.95;16.33;;;;;;;3.47;76.55;100889.53;4999131;28;21235;-77
2023/01/25 08:06:26;;;;;;;24.73;15.70;;;;;;;3.52;76.30;100876.50;4982509;28;20230;-77
2023/01/25 08:08:52;;;;;;;26.52;15.73;;;;;;;3.56;76.27;100875.56;4998393;28;20260;-77
2023/01/25 08:11:19;;;;;;;25.42;14.57;;;;;;;3.59;76.18;100879.84;4999656;28;20534;-77
2023/01/25 08:13:45;;;;;;;25.58;12.20;;;;;;;3.62;75.94;100875.47;4999879;28;20703;-77
2023/01/25 08:16:13;;;;;;;29.70;14.80;;;;;;;3.65;76.14;100880.63;4997506;28;20725;-77
2023/01/25 08:18:38;;;;;;;28.17;14.50;;;;;;;3.68;76.12;100871.94;4998133;28;20243;-78
2023/01/25 08:21:04;;;;;;;27.20;16.37;;;;;;;3.71;75.61;100875.34;4988720;28;20207;-77
2023/01/25 08:23:29;;;;;;;27.60;15.33;;;;;;;3.74;75.85;100877.88;4989663;28;20262;-77
2023/01/25 08:25:55;;;;;;;22.87;13.13;;;;;;;3.76;75.49;100880.47;4990355;28;20191;-77
2023/01/25 08:28:21;;;;;;;21.07;14.20;;;;;;;3.77;75.62;100877.81;4993674;28;20222;-77
2023/01/25 08:30:47;;;;;;;32.47;14.60;;;;;;;3.78;75.50;100876.13;4990971;28;20208;-77
2023/01/25 08:33:12;;;;;;;22.53;14.13;;;;;;;3.74;75.24;100866.63;4993231;28;20222;-77
2023/01/25 08:35:38;;;;;;;31.45;17.38;;;;;;;3.79;75.65;100866.56;4992499;28;20504;-77
2023/01/25 08:38:03;;;;;;;24.97;13.50;;;;;;;3.75;75.68;100863.13;4991909;28;20334;-77
2023/01/25 08:40:29;;;;;;;24.37;13.37;;;;;;;3.73;75.72;100862.31;4990053;28;20687;-77
2023/01/25 08:42:55;;;;;;;28.70;14.00;;;;;;;3.72;75.63;100853.66;4991403;28;20198;-77
2023/01/25 08:45:20;;;;;;;31.87;16.13;;;;;;;3.73;75.59;100845.00;4992973;28;20198;-77
2023/01/25 08:47:45;;;;;;;31.17;13.40;;;;;;;3.76;75.39;100847.53;4993222;28;20222;-77
2023/01/25 08:50:11;;;;;;;21.60;13.27;;;;;;;3.80;75.09;100850.94;4974072;28;20669;-78
2023/01/25 08:52:37;;;;;;;27.10;15.03;;;;;;;3.84;75.37;100846.56;4991198;28;20741;-78
2023/01/25 08:55:02;;;;;;;31.60;16.57;;;;;;;3.88;75.21;100843.88;4995748;28;20698;-78
2023/01/25 08:57:28;;;;;;;24.13;15.37;;;;;;;3.91;74.75;100840.38;4977926;28;21115;-76
2023/01/25 08:59:53;;;;;;;31.10;15.20;;;;;;;3.92;74.85;100849.91;4985826;28;20203;-76
2023/01/25 09:02:20;;;;;;;27.47;14.20;;;;;;;3.94;74.83;100845.50;5006868;28;20714;-76
2023/01/25 09:04:46;;;;;;;33.85;15.10;;;;;;;3.91;75.08;100840.38;5006751;28;20202;-76
2023/01/25 09:07:11;;;;;;;21.10;12.80;;;;;;;3.91;74.92;100851.63;5002968;28;20262;-76
2023/01/25 09:09:37;;;;;;;23.17;14.17;;;;;;;3.89;74.62;100844.72;5000293;28;20674;-76
2023/01/25 09:12:02;;;;;;;25.67;13.70;;;;;;;3.89;74.92;100847.31;5004747;28;20201;-76
2023/01/25 09:14:28;;;;;;;24.70;15.20;;;;;;;3.89;74.99;100836.94;5004102;28;20222;-76
2023/01/25 09:16:53;;;;;;;27.17;14.77;;;;;;;3.91;75.05;100833.41;5005196;28;20229;-76
2023/01/25 09:19:18;;;;;;;23.97;13.63;;;;;;;3.95;74.79;100832.50;5010030;28;20764;-76
2023/01/25 09:21:44;;;;;;;21.90;13.20;;;;;;;3.96;74.71;100835.94;5017015;28;20206;-76
2023/01/25 09:24:10;;;;;;;22.87;14.10;;;;;;;3.97;74.78;100838.53;5015000;28;20685;-76
2023/01/25 09:26:38;;;;;;;28.27;15.07;;;;;;;4.02;74.80;100838.44;5018274;28;20241;-76
2023/01/25 09:29:06;;;;;;;21.52;12.57;;;;;;;4.07;74.64;100843.56;5015458;28;20670;-76
2023/01/25 09:31:32;;;;;;;27.60;15.27;;;;;;;4.08;74.57;100845.28;5015331;28;20209;-76
2023/01/25 09:34:00;;;;;;;27.10;15.77;;;;;;;4.10;74.69;100844.38;5016896;28;20470;-76
2023/01/25 09:36:26;;;;;;;33.10;16.20;;;;;;;4.13;74.48;100838.25;5014063;28;20201;-76
2023/01/25 09:38:52;;;;;;;24.60;13.30;;;;;;;4.14;74.42;100840.84;5001228;28;20222;-76
2023/01/25 09:41:55;;;;;;;24.40;13.63;;;;;;;4.16;74.44;100840.84;5018086;28;20751;-76
2023/01/25 09:44:29;;;;;;;23.70;12.32;;;;;;;4.15;74.34;100836.50;5007402;28;20267;-76
2023/01/25 09:46:58;;;;;;;26.58;13.45;;;;;;;4.17;74.52;100840.78;5014024;28;20205;-76
2023/01/25 09:49:35;;;;;;;23.15;13.52;;;;;;;4.21;74.45;100846.78;5013520;28;20313;-76
2023/01/25 09:52:18;;;;;;;24.75;13.32;;;;;;;4.21;74.28;100839.88;5015559;28;20217;-77
2023/01/25 09:54:46;;;;;;;25.10;12.13;;;;;;;4.25;74.02;100845.84;5014973;28;20249;-76
2023/01/25 09:57:19;;;;;;;17.45;13.75;;;;;;;4.31;74.03;100843.13;5014974;28;20209;-77
2023/01/25 09:59:48;;;;;;;28.23;14.05;;;;;;;4.35;74.03;100836.16;5018152;28;20207;-76
2023/01/25 10:02:29;;;;;;;21.85;11.80;;;;;;;4.38;73.86;100831.75;5013698;28;20207;-76
2023/01/25 10:04:59;;;;;;;31.95;18.00;;;;;;;4.40;73.70;100836.91;5013460;28;20489;-76
2023/01/25 10:07:29;;;;;;;27.30;16.83;;;;;;;4.40;74.03;100827.38;5013557;28;20255;-76
2023/01/25 10:10:15;;;;;;;27.38;14.65;;;;;;;4.42;73.77;100830.78;5011781;28;20210;-76
2023/01/25 10:12:41;;;;;;;23.55;14.60;;;;;;;4.41;73.50;100823.88;5013274;28;21437;-76
2023/01/25 10:15:20;;;;;;;25.33;14.60;;;;;;;4.46;73.57;100825.56;5016877;28;20249;-76
2023/01/25 10:17:57;;;;;;;27.42;15.55;;;;;;;4.49;73.36;100828.94;5008549;28;20269;-77
2023/01/25 10:20:33;;;;;;;27.77;12.50;;;;;;;4.49;73.32;100822.88;5011826;28;20210;-76
2023/01/25 10:23:33;;;;;;;28.80;14.25;;;;;;;4.47;73.30;100822.06;5013947;28;20293;-76
2023/01/25 10:26:25;;;;;;;24.60;13.35;;;;;;;4.46;73.14;100816.00;5015318;28;20214;-76
2023/01/25 10:29:11;;;;;;;20.52;13.82;;;;;;;4.46;73.31;100826.41;5012953;28;20281;-76
2023/01/25 10:31:52;;;;;;;26.42;16.02;;;;;;;4.48;73.28;100819.41;5011727;28;20198;-76
2023/01/25 10:34:21;;;;;;;27.67;12.85;;;;;;;4.50;73.33;100817.63;5014541;28;20225;-76
2023/01/25 10:37:18;;;;;;;25.38;13.70;;;;;;;4.53;73.06;100812.38;5013270;28;20298;-76
2023/01/25 10:39:59;;;;;;;27.48;15.10;;;;;;;4.55;73.16;100818.41;4990497;28;20734;-76
2023/01/25 10:42:28;;;;;;;29.88;15.98;;;;;;;4.59;73.21;100809.66;5012273;28;20612;-77
2023/01/25 10:44:54;;;;;;;28.08;14.55;;;;;;;4.63;72.96;100808.72;5014751;28;20760;-76
2023/01/25 10:47:29;;;;;;;26.73;14.93;;;;;;;4.66;73.15;100797.38;5013832;28;20276;-76
2023/01/25 10:49:57;;;;;;;24.50;14.27;;;;;;;4.72;72.94;100797.25;5011521;28;20843;-77
2023/01/25 10:52:27;;;;;;;25.17;14.23;;;;;;;4.80;72.63;100789.28;5015035;28;20343;-76
2023/01/25 10:55:13;;;;;;;26.70;14.50;;;;;;;4.83;72.46;100789.22;5014704;28;20235;-76
2023/01/25 10:57:43;;;;;;;22.23;12.38;;;;;;;4.87;72.33;100790.88;5015057;28;21358;-77
2023/01/25 11:00:33;;;;;;;28.85;15.80;;;;;;;4.91;72.45;100787.31;5011515;28;20218;-76
2023/01/25 11:02:59;;;;;;;24.65;15.43;;;;;;;4.91;72.32;100779.50;4995994;28;20561;-76
2023/01/25 11:05:27;;;;;;;23.30;14.37;;;;;;;4.90;72.39;100775.19;5013912;28;20255;-76
2023/01/25 11:07:54;;;;;;;22.30;11.40;;;;;;;4.86;71.83;100783.94;5008445;28;20217;-76
2023/01/25 11:10:34;;;;;;;27.02;12.25;;;;;;;4.84;72.33;100770.13;5011704;28;21092;-76
2023/01/25 11:13:12;;;;;;;22.02;13.63;;;;;;;4.85;71.84;100767.47;5010355;28;21464;-76
2023/01/25 11:15:38;;;;;;;19.33;10.73;;;;;;;4.86;72.11;100770.91;5011052;28;20705;-77
2023/01/25 11:18:22;;;;;;;23.70;13.57;;;;;;;4.90;72.53;100761.31;5006612;28;20254;-77
2023/01/25 11:21:03;;;;;;;29.88;14.73;;;;;;;4.96;71.77;100761.19;5015051;28;20203;-76
2023/01/25 11:23:30;;;;;;;19.75;12.30;;;;;;;5.00;71.85;100755.88;5011439;28;20640;-76
2023/01/25 11:26:12;;;;;;;20.27;12.40;;;;;;;5.02;71.28;100750.63;5015505;28;20297;-76
2023/01/25 11:28:37;;;;;;;23.23;11.65;;;;;;;5.01;71.33;100746.31;5013190;28;20222;-76
2023/01/25 11:31:10;;;;;;;21.10;12.50;;;;;;;5.02;71.06;100738.47;5015999;28;20205;-76
2023/01/25 11:33:35;;;;;;;21.38;12.25;;;;;;;5.05;71.17;100738.41;5011656;28;20198;-76